Secor, IL (61771)

1:39 AM CST on November 23, 2014 (GMT -0600)
Deer Meadows | Change Station
CLOSE
Current Station
Personal Weather Station
Location: Secor, IL
Elevation: 673 ft
Nearby Weather Stations

Elev 673 ft 40.67 °N, 89.16 °W | Updated 3 minutes ago

Overcast
Overcast
48.9 °F
Feels Like 49 °F
N
1.0
Wind Variable Wind from South
Gusts 1.0 mph

Today
High -- | Low -- °F
--% Chance of Precip.
Yesterday
High -- | Low -- °F
Precip. -- in
6:52 AM 4:32 PM
New Moon, 1% visible
Pressure 29.79 in
Visibility 10.0 miles
Clouds Overcast 1300 ft
Windchill 49 °F
Dew Point 46 °F
Humidity 88%
Rainfall 0.00 in
Snow Depth Not available.
UV 0 out of 12
Pollen .10 out of 12
Air Quality Not available.
Flu Activity Not available.
METAR KC75 230715Z AUTO 20012G19KT 10SM OVC013 11/09 A2979 RMK AO2 T01130088

More Conditions Fewer Conditions

Pressure 29.79 in
Visibility 10.0 miles
Clouds Overcast 1300 ft
Windchill 49 °F
Dew Point 46 °F
Humidity 88%
Rainfall 0.00 in
Snow Depth Not available.
UV 0 out of 12
Pollen .10 out of 12
Air Quality Not available.
Flu Activity Not available.
METAR KC75 230715Z AUTO 20012G19KT 10SM OVC013 11/09 A2979 RMK AO2 T01130088

More Conditions Fewer Conditions

10-Day Weather Forecast

Almanac

Astronomy

Nov. 23, 2014 Rise Set
Actual Time
Civil Twilight
Nautical Twilight
Astronomical Twilight
Moon
Length of Visible Light
Length of Day
Tomorrow will be .
, % of the Moon is Illuminated

Today's Extremes

State Highs State Lows

Community

WunderPhotos

Upload Photos

1,773,024 photos uploaded!

WunderBlogs® & News

Nearby

Air Quality

  Air Quality AQ Index Pollutant
Not available.

Snow Depth

Station Depth Elevation

Earthquake Activity

City Distance Mag. Time & Date
Minimum magnitude displayed is 2.5.

Coastal Water Temperatures

Place Temperature

Nearby Weather Stations